EGNH - Blackpool Airport
Distance from station: E 5mi, 14km
Updated: 01/21/2018 12:50pm
NOT Current
Mostly Cloudy
Mostly Cloudy
 Wind from W
Wind: W 21 mph , 33 km/h
Temperature: 46°F , 8°C
Wind Chill: 38°F , 3°C
Dew Point: 46°F , 8°C
Humidity: 100%
Barometer: 29.59 inHg , 1002 hPa
Clouds: Mostly Cloudy
Visibility: 6 miles , 10 km
Cloud details: Few Clouds 1700 ft
Mostly Cloudy 3000 ft
2018/01/21 20:50 EGNH 212050Z 28018KT 9999 FEW017 BKN030 08/08 Q1002